This is the latest recevied weather packets stored in our database for station/object N5YHM-13. If no packets are shown the sender has not sent any weather packets the latest 10 day(s).
| Time | Temp. | Humidity | Pressure | Rain* | Wind** | Luminosity | Snow |
|---|---|---|---|---|---|---|---|
| 1777907061 | 21.11° C | 66% | 1020.1 hPa | 0 mm | - | 23 W/m² | - |
| 1777906759 | 20.56° C | 64% | 1019.9 hPa | 0 mm | - | 7 W/m² | - |
| 1777906455 | 20.56° C | 67% | 1020.1 hPa | 0 mm | - | 11 W/m² | - |
| 1777906152 | 20.56° C | 64% | 1020.1 hPa | 0 mm | - | 7 W/m² | - |
| 1777905848 | 20° C | 69% | 1020 hPa | 0 mm | - | 7 W/m² | - |
| 1777905545 | 20° C | 70% | 1020.1 hPa | 0 mm | - | 39 W/m² | - |
| 1777905242 | 20° C | 71% | 1020.2 hPa | 0 mm | - | 14 W/m² | - |
| 1777904939 | 19.44° C | 71% | 1020.1 hPa | 0 mm | - | 27 W/m² | - |
| 1777904636 | 19.44° C | 73% | 1020 hPa | 0 mm | - | 9 W/m² | - |
| 1777904333 | 18.89° C | 77% | 1020.1 hPa | 0 mm | - | 15 W/m² | - |
| 1777904030 | 18.89° C | 75% | 1020.1 hPa | 0 mm | - | 7 W/m² | - |
| 1777903726 | 18.33° C | 77% | 1020 hPa | 0 mm | - | 9 W/m² | - |
| 1777903423 | 18.33° C | 78% | 1020.1 hPa | 0 mm | - | 27 W/m² | - |
| 1777903119 | 17.78° C | 80% | 1019.9 hPa | 0 mm | - | 6 W/m² | - |
| 1777902816 | 17.78° C | 81% | 1020.3 hPa | 0 mm | - | 10 W/m² | - |
| 1777902514 | 17.22° C | 83% | 1020.2 hPa | 0 mm | - | 6 W/m² | - |
| 1777902210 | 16.67° C | 84% | 1020.1 hPa | 0 mm | - | 7 W/m² | - |
| 1777901908 | 16.11° C | 86% | 1020.1 hPa | 0 mm | - | 7 W/m² | - |
| 1777901605 | 16.11° C | 89% | 1020.4 hPa | 0 mm | - | 6 W/m² | - |
| 1777901302 | 15.56° C | 90% | 1020.3 hPa | 0 mm | - | 6 W/m² | - |
| 1777901000 | 15° C | 91% | 1020.3 hPa | 0 mm | - | 13 W/m² | - |
| 1777900698 | 14.44° C | 96% | 1020 hPa | 0 mm | - | 6 W/m² | - |
| 1777900394 | 14.44° C | 97% | 1020.1 hPa | 0 mm | - | 5 W/m² | - |
| 1777900091 | 13.89° C | 98% | 1020.1 hPa | 0 mm | - | 5 W/m² | - |
| 1777899788 | 13.33° C | 98% | 1020.2 hPa | 0 mm | - | 17 W/m² | - |
* Rain latest hour (hover to see other rain measurements)
** Current wind speed in m/s (hover to see current wind gust speed)